createdAt,value
2023-04-20T00:02:36.000Z,6.53
2023-04-20T00:07:35.000Z,6.58
2023-04-20T00:12:35.000Z,6.63
2023-04-20T00:17:36.000Z,6.62
2023-04-20T00:22:35.000Z,6.58
2023-04-20T00:27:35.000Z,6.54
2023-04-20T00:32:36.000Z,6.49
2023-04-20T00:37:35.000Z,6.34
2023-04-20T00:42:35.000Z,6.11
2023-04-20T00:47:36.000Z,5.96
2023-04-20T00:52:35.000Z,5.9
2023-04-20T00:57:35.000Z,5.9
2023-04-20T01:02:36.000Z,5.95
2023-04-20T01:07:35.000Z,5.78
2023-04-20T01:12:35.000Z,5.47
2023-04-20T01:17:35.000Z,5.18
2023-04-20T01:22:35.000Z,4.94
2023-04-20T01:27:35.000Z,4.75
2023-04-20T01:32:35.000Z,4.63
2023-04-20T01:37:35.000Z,4.62
2023-04-20T01:42:35.000Z,4.65
2023-04-20T01:47:35.000Z,4.74
2023-04-20T01:52:36.000Z,4.84
2023-04-20T01:57:35.000Z,5.01
2023-04-20T02:02:36.000Z,4.97
2023-04-20T02:07:35.000Z,4.97
2023-04-20T02:12:36.000Z,4.76
2023-04-20T02:17:36.000Z,4.66
2023-04-20T02:22:36.000Z,4.62
2023-04-20T02:27:36.000Z,4.64
2023-04-20T02:32:35.000Z,4.75
2023-04-20T02:37:36.000Z,4.83
2023-04-20T02:42:35.000Z,4.95
2023-04-20T02:47:36.000Z,4.97
2023-04-20T02:52:36.000Z,4.98
2023-04-20T02:57:36.000Z,5.08
2023-04-20T03:02:36.000Z,5.1
2023-04-20T03:07:36.000Z,5.06
2023-04-20T03:12:36.000Z,5.1
2023-04-20T03:17:36.000Z,5.2
2023-04-20T03:22:36.000Z,5.2
2023-04-20T03:27:35.000Z,5.32
2023-04-20T03:32:36.000Z,5.49
2023-04-20T03:37:36.000Z,5.63
2023-04-20T03:42:35.000Z,6.06
2023-04-20T03:47:36.000Z,6.86
2023-04-20T03:52:35.000Z,7.81
2023-04-20T03:57:36.000Z,8.2
2023-04-20T04:02:35.000Z,7.98
2023-04-20T04:07:36.000Z,8
2023-04-20T04:12:35.000Z,7.99
2023-04-20T04:17:35.000Z,8.08
2023-04-20T04:22:37.000Z,8.28
2023-04-20T04:27:36.000Z,8.72
2023-04-20T04:32:35.000Z,9.01
2023-04-20T04:37:35.000Z,9.01
2023-04-20T04:42:36.000Z,9.56
2023-04-20T04:47:36.000Z,10.17
2023-04-20T04:52:35.000Z,10.91
2023-04-20T04:57:36.000Z,11.27
2023-04-20T05:02:36.000Z,11.28
2023-04-20T05:07:36.000Z,11.57
2023-04-20T05:12:35.000Z,11.67
2023-04-20T05:17:36.000Z,11.86
2023-04-20T05:22:36.000Z,12.38
2023-04-20T05:27:35.000Z,13.38
2023-04-20T05:32:35.000Z,15.55
2023-04-20T05:37:36.000Z,17.7
2023-04-20T05:42:36.000Z,20.19
2023-04-20T05:47:36.000Z,22.7
2023-04-20T05:52:35.000Z,22.7
2023-04-20T05:57:35.000Z,25.09
2023-04-20T06:02:36.000Z,26.28
2023-04-20T06:07:35.000Z,27.88
2023-04-20T06:12:36.000Z,27.31
2023-04-20T06:17:36.000Z,27.39
2023-04-20T06:22:36.000Z,26.64
2023-04-20T06:27:36.000Z,27.99
2023-04-20T06:32:36.000Z,28.12
2023-04-20T06:37:35.000Z,28.22
2023-04-20T06:42:36.000Z,28.71
2023-04-20T06:47:36.000Z,28.71
2023-04-20T06:52:36.000Z,29.92
2023-04-20T06:57:36.000Z,31.94
2023-04-20T07:02:35.000Z,32.51
2023-04-20T07:07:36.000Z,32.67
2023-04-20T07:12:36.000Z,32.94
2023-04-20T07:17:37.000Z,32.57
2023-04-20T07:22:35.000Z,33.41
2023-04-20T07:27:36.000Z,35.34
2023-04-20T07:32:36.000Z,34.75
2023-04-20T07:37:37.000Z,35.2
2023-04-20T07:42:36.000Z,35.25
2023-04-20T07:47:35.000Z,34.7
2023-04-20T07:52:36.000Z,34.91
2023-04-20T07:57:35.000Z,35.84
2023-04-20T08:02:35.000Z,35.84
2023-04-20T08:07:36.000Z,34.4
2023-04-20T08:12:36.000Z,34.93
2023-04-20T08:17:35.000Z,33.39
2023-04-20T08:22:36.000Z,31.83
2023-04-20T08:27:36.000Z,29.41
2023-04-20T08:32:37.000Z,27.74
2023-04-20T08:37:35.000Z,29.19
2023-04-20T08:42:36.000Z,31.23
2023-04-20T08:47:36.000Z,34.02
2023-04-20T08:52:36.000Z,34.02
2023-04-20T08:57:36.000Z,27.86
2023-04-20T09:02:36.000Z,24.44
2023-04-20T09:07:35.000Z,22.25
2023-04-20T09:12:36.000Z,21.35
2023-04-20T09:17:36.000Z,21.35
2023-04-20T09:22:35.000Z,21.51
2023-04-20T09:27:35.000Z,21.12
2023-04-20T09:32:36.000Z,20.96
2023-04-20T09:37:35.000Z,20.42
2023-04-20T09:42:35.000Z,19.67
2023-04-20T09:47:35.000Z,19.61
2023-04-20T09:52:36.000Z,19.77
2023-04-20T09:57:36.000Z,20.13
2023-04-20T10:02:36.000Z,20.42
2023-04-20T10:07:36.000Z,20.42
2023-04-20T10:12:36.000Z,20.51
2023-04-20T10:17:38.000Z,20.64
2023-04-20T10:22:35.000Z,20.8
2023-04-20T10:27:36.000Z,20.77
2023-04-20T10:32:36.000Z,20.77
2023-04-20T10:37:36.000Z,20.36
2023-04-20T10:42:35.000Z,19.91
2023-04-20T10:47:38.000Z,19.7
2023-04-20T10:52:36.000Z,19.9
2023-04-20T10:57:36.000Z,20.16
2023-04-20T11:02:36.000Z,20.04
2023-04-20T11:07:36.000Z,19.84
2023-04-20T11:12:35.000Z,19.75
2023-04-20T11:17:35.000Z,19.38
2023-04-20T11:22:36.000Z,19.16
2023-04-20T11:27:35.000Z,18.96
2023-04-20T11:32:36.000Z,18.72
2023-04-20T11:37:43.000Z,18.51
2023-04-20T11:42:35.000Z,18.51
2023-04-20T11:47:35.000Z,18.69
2023-04-20T11:52:35.000Z,18.41
2023-04-20T11:57:36.000Z,18.2
2023-04-20T12:02:36.000Z,18.22
2023-04-20T12:07:36.000Z,18.45
2023-04-20T12:12:36.000Z,18.64
2023-04-20T12:17:35.000Z,18.57
2023-04-20T12:22:35.000Z,18.27
2023-04-20T12:27:35.000Z,18
2023-04-20T12:32:36.000Z,17.56
2023-04-20T12:37:35.000Z,17.43
2023-04-20T12:42:35.000Z,17.59
2023-04-20T12:47:36.000Z,17.66
2023-04-20T12:52:36.000Z,17.66
2023-04-20T12:57:35.000Z,17.62
2023-04-20T13:02:35.000Z,17.83
2023-04-20T13:07:36.000Z,17.95
2023-04-20T13:12:35.000Z,17.36
2023-04-20T13:17:35.000Z,16.92
2023-04-20T13:22:36.000Z,16.89
2023-04-20T13:27:36.000Z,16.86
2023-04-20T13:32:36.000Z,16.83
2023-04-20T13:37:35.000Z,16.87
2023-04-20T13:42:35.000Z,16.92
2023-04-20T13:47:36.000Z,16.77
2023-04-20T13:52:36.000Z,16.55
2023-04-20T13:57:36.000Z,16.28
2023-04-20T14:02:35.000Z,15.95
2023-04-20T14:07:35.000Z,15.95
2023-04-20T14:12:36.000Z,15.78
2023-04-20T14:17:36.000Z,15.69
2023-04-20T14:22:35.000Z,15.64
2023-04-20T14:27:36.000Z,15.64
2023-04-20T14:32:35.000Z,15.68
2023-04-20T14:37:35.000Z,15.69
2023-04-20T14:42:35.000Z,15.72
2023-04-20T14:47:36.000Z,15.68
2023-04-20T14:52:35.000Z,15.72
2023-04-20T14:57:35.000Z,15.72
2023-04-20T15:02:36.000Z,15.74
2023-04-20T15:07:35.000Z,15.73
2023-04-20T15:12:36.000Z,15.65
2023-04-20T15:17:35.000Z,15.65
2023-04-20T15:22:35.000Z,15.59
2023-04-20T15:27:35.000Z,15.56
2023-04-20T15:32:36.000Z,15.53
2023-04-20T15:37:35.000Z,15.3
2023-04-20T15:42:36.000Z,15.09
2023-04-20T15:47:36.000Z,14.98
2023-04-20T15:52:36.000Z,14.86
2023-04-20T15:57:36.000Z,14.75
2023-04-20T16:02:35.000Z,14.66
2023-04-20T16:07:36.000Z,14.58
2023-04-20T16:12:35.000Z,14.5
2023-04-20T16:17:35.000Z,14.42
2023-04-20T16:22:35.000Z,14.35
2023-04-20T16:27:35.000Z,14.35
2023-04-20T16:32:35.000Z,14.29
2023-04-20T16:37:36.000Z,14.23
2023-04-20T16:42:36.000Z,14.15
2023-04-20T16:47:35.000Z,14.07
2023-04-20T16:52:35.000Z,13.98
2023-04-20T16:57:35.000Z,13.9
2023-04-20T17:02:36.000Z,13.76
2023-04-20T17:07:35.000Z,13.6
2023-04-20T17:12:36.000Z,13.45
2023-04-20T17:17:36.000Z,13.31
2023-04-20T17:22:36.000Z,13.09
2023-04-20T17:27:35.000Z,12.87
2023-04-20T17:32:35.000Z,12.78
2023-04-20T17:37:36.000Z,12.57
2023-04-20T17:42:35.000Z,12.57
2023-04-20T17:47:36.000Z,12.25
2023-04-20T17:52:35.000Z,12.02
2023-04-20T17:57:35.000Z,11.76
2023-04-20T18:02:36.000Z,11.48
2023-04-20T18:07:35.000Z,11.32
2023-04-20T18:12:35.000Z,11.14
2023-04-20T18:17:35.000Z,11.01
2023-04-20T18:22:36.000Z,10.98
2023-04-20T18:27:35.000Z,10.91
2023-04-20T18:32:36.000Z,10.85
2023-04-20T18:37:35.000Z,10.8
2023-04-20T18:42:36.000Z,10.64
2023-04-20T18:47:36.000Z,10.44
2023-04-20T18:52:36.000Z,10.44
2023-04-20T18:57:36.000Z,10.34
2023-04-20T19:02:36.000Z,10.2
2023-04-20T19:07:35.000Z,10.14
2023-04-20T19:12:35.000Z,10.12
2023-04-20T19:17:35.000Z,10.05
2023-04-20T19:22:35.000Z,9.98
2023-04-20T19:27:35.000Z,9.91
2023-04-20T19:32:36.000Z,9.83
2023-04-20T19:37:35.000Z,9.72
2023-04-20T19:42:36.000Z,9.59
2023-04-20T19:47:36.000Z,9.29
2023-04-20T19:52:35.000Z,8.91
2023-04-20T19:57:36.000Z,8.91
2023-04-20T20:02:37.000Z,8.93
2023-04-20T20:07:36.000Z,8.93
2023-04-20T20:12:35.000Z,8.93
2023-04-20T20:17:35.000Z,9.02
2023-04-20T20:22:35.000Z,9.08
2023-04-20T20:27:35.000Z,9.11
2023-04-20T20:32:36.000Z,9.14
2023-04-20T20:37:36.000Z,9.15
2023-04-20T20:42:35.000Z,9.06
2023-04-20T20:47:35.000Z,8.98
2023-04-20T20:52:36.000Z,8.9
2023-04-20T20:57:35.000Z,8.87
2023-04-20T21:02:35.000Z,8.86
2023-04-20T21:07:36.000Z,8.84
2023-04-20T21:12:35.000Z,8.82
2023-04-20T21:17:36.000Z,8.82
2023-04-20T21:22:35.000Z,8.78
2023-04-20T21:27:35.000Z,8.72
2023-04-20T21:32:36.000Z,8.63
2023-04-20T21:37:36.000Z,8.55
2023-04-20T21:42:36.000Z,8.43
2023-04-20T21:47:36.000Z,8.28
2023-04-20T21:52:35.000Z,8.25
2023-04-20T21:57:35.000Z,8.12
2023-04-20T22:02:36.000Z,8.07
2023-04-20T22:07:36.000Z,8.08
2023-04-20T22:12:49.000Z,7.98
2023-04-20T22:17:34.000Z,7.82
2023-04-20T22:22:35.000Z,7.68
2023-04-20T22:27:35.000Z,7.54
2023-04-20T22:32:35.000Z,7.54
2023-04-20T22:37:36.000Z,7.34
2023-04-20T22:42:35.000Z,7.26
2023-04-20T22:47:35.000Z,7.18
2023-04-20T22:52:35.000Z,7.02
2023-04-20T22:57:36.000Z,7.04
2023-04-20T23:02:36.000Z,7.04
2023-04-20T23:07:35.000Z,6.94
2023-04-20T23:12:36.000Z,6.73
2023-04-20T23:17:36.000Z,6.53
2023-04-20T23:22:35.000Z,6.41
2023-04-20T23:27:35.000Z,6.26
2023-04-20T23:32:35.000Z,6.19
2023-04-20T23:37:35.000Z,6.19
2023-04-20T23:42:36.000Z,6.13
2023-04-20T23:47:35.000Z,6.1
2023-04-20T23:52:35.000Z,6.02
2023-04-20T23:57:35.000Z,5.99
